Time;durP1;ratioP1;P1;durP2;ratioP2;P2;SDS_P1;SDS_P2;PMS_P1;PMS_P2;Temp;Humidity;BMP_temperature;BMP_pressure;BME280_temperature;BME280_humidity;BME280_pressure;Samples;Min_cycle;Max_cycle;Signal;HPM_P1;HPM_P2
2021/03/18 00:00:51;;;;;;;;;;;;;;;27.63;22.75;99857.38;5077226;28;1991;-38
2021/03/18 00:03:17;;;;;;;;;;;;;;;27.67;22.95;99855.94;5078098;28;951;-44
2021/03/18 00:05:42;;;;;;;;;;;;;;;28.05;22.49;99854.44;5077728;28;795;-38
2021/03/18 00:08:08;;;;;;;;;;;;;;;28.13;22.32;99856.09;5077082;28;876;-44
2021/03/18 00:10:33;;;;;;;;;;;;;;;27.95;22.07;99856.75;5077282;28;776;-32
2021/03/18 00:12:58;;;;;;;;;;;;;;;27.65;22.64;99854.47;5077723;28;807;-34
2021/03/18 00:15:24;;;;;;;;;;;;;;;27.82;22.62;99858.44;5077090;28;852;-32
2021/03/18 00:17:49;;;;;;;;;;;;;;;28.13;22.28;99866.91;5077585;28;986;-38
2021/03/18 00:20:14;;;;;;;;;;;;;;;28.13;22.26;99853.38;5077168;28;1965;-43
2021/03/18 00:22:40;;;;;;;;;;;;;;;27.93;22.17;99862.38;5076543;28;796;-34
2021/03/18 00:25:06;;;;;;;;;;;;;;;27.57;22.59;99860.91;5077456;28;748;-43
2021/03/18 00:27:31;;;;;;;;;;;;;;;27.86;22.70;99864.28;5077429;28;745;-41
2021/03/18 00:29:57;;;;;;;;;;;;;;;28.11;22.37;99866.31;5076750;28;840;-42
2021/03/18 00:32:22;;;;;;;;;;;;;;;28.02;22.19;99871.09;5077190;28;1103;-33
2021/03/18 00:34:47;;;;;;;;;;;;;;;27.91;22.43;99863.63;5059391;28;803;-43
2021/03/18 00:37:12;;;;;;;;;;;;;;;27.50;22.79;99859.03;5076766;28;792;-34
2021/03/18 00:39:38;;;;;;;;;;;;;;;27.71;22.99;99859.88;5077023;28;780;-42
2021/03/18 00:42:03;;;;;;;;;;;;;;;28.04;22.68;99866.31;5076700;28;1989;-41
2021/03/18 00:44:28;;;;;;;;;;;;;;;28.08;22.44;99869.41;5076710;28;728;-42
2021/03/18 00:46:54;;;;;;;;;;;;;;;28.04;22.02;99863.63;5076767;28;951;-41
2021/03/18 00:49:19;;;;;;;;;;;;;;;27.66;22.92;99872.34;5076619;28;848;-34
2021/03/18 00:51:44;;;;;;;;;;;;;;;27.69;23.12;99862.00;5076661;28;725;-32
2021/03/18 00:54:10;;;;;;;;;;;;;;;28.06;22.56;99869.63;5076545;28;837;-32
2021/03/18 00:56:35;;;;;;;;;;;;;;;28.14;22.69;99865.03;5076716;28;836;-36
2021/03/18 00:59:00;;;;;;;;;;;;;;;27.92;22.83;99867.97;5076744;28;772;-39
2021/03/18 01:01:25;;;;;;;;;;;;;;;27.77;22.85;99865.50;5076368;28;1905;-33
2021/03/18 01:03:51;;;;;;;;;;;;;;;27.61;23.38;99865.69;5076211;28;947;-42
2021/03/18 01:06:17;;;;;;;;;;;;;;;28.05;22.77;99865.25;5076174;28;878;-39
2021/03/18 01:08:43;;;;;;;;;;;;;;;28.17;22.75;99867.31;5076057;28;783;-32
2021/03/18 01:11:09;;;;;;;;;;;;;;;28.19;22.53;99866.06;5076887;28;731;-42
2021/03/18 01:13:35;;;;;;;;;;;;;;;27.85;22.96;99863.44;5076890;28;712;-43
2021/03/18 01:16:02;;;;;;;;;;;;;;;27.82;23.03;99860.31;5076353;28;770;-33
2021/03/18 01:18:30;;;;;;;;;;;;;;;28.11;22.93;99856.31;5076758;28;987;-44
2021/03/18 01:20:55;;;;;;;;;;;;;;;28.15;22.87;99853.16;5076722;28;1902;-36
2021/03/18 01:23:21;;;;;;;;;;;;;;;28.09;22.82;99857.56;5075870;28;766;-41
2021/03/18 01:25:46;;;;;;;;;;;;;;;27.75;23.22;99844.09;5076234;28;831;-44
2021/03/18 01:28:11;;;;;;;;;;;;;;;27.97;23.16;99844.69;5076829;28;812;-41
2021/03/18 01:30:37;;;;;;;;;;;;;;;28.20;22.69;99854.22;5075881;28;1167;-42
2021/03/18 01:33:03;;;;;;;;;;;;;;;28.23;22.86;99853.78;5076393;28;1048;-32
2021/03/18 01:35:28;;;;;;;;;;;;;;;28.19;22.57;99852.56;5076338;28;731;-33
2021/03/18 01:37:53;;;;;;;;;;;;;;;27.78;23.09;99859.09;5076154;28;864;-36
2021/03/18 01:40:22;;;;;;;;;;;;;;;28.07;23.42;99857.78;5076264;28;1968;-34
2021/03/18 01:42:48;;;;;;;;;;;;;;;27.80;22.46;99857.81;5076611;28;772;-42
2021/03/18 01:45:13;;;;;;;;;;;;;;;27.93;22.35;99861.53;5075845;28;843;-41
2021/03/18 01:47:39;;;;;;;;;;;;;;;28.06;22.42;99858.00;5076661;28;947;-42
2021/03/18 01:50:05;;;;;;;;;;;;;;;27.73;22.58;99855.13;5076113;28;827;-41
2021/03/18 01:52:30;;;;;;;;;;;;;;;27.91;22.96;99856.34;5075739;28;707;-36
2021/03/18 01:54:55;;;;;;;;;;;;;;;28.22;22.78;99854.00;5076123;28;802;-42
2021/03/18 01:57:21;;;;;;;;;;;;;;;28.27;22.20;99846.06;5075942;28;787;-30
2021/03/18 01:59:46;;;;;;;;;;;;;;;28.40;21.83;99855.22;5058157;28;823;-42
2021/03/18 02:02:11;;;;;;;;;;;;;;;28.09;22.24;99858.38;5081679;28;1957;-33
2021/03/18 02:04:36;;;;;;;;;;;;;;;27.95;22.60;99872.97;5077664;28;769;-42
2021/03/18 02:07:02;;;;;;;;;;;;;;;28.24;22.37;99878.97;5095976;28;760;-33
2021/03/18 02:09:27;;;;;;;;;;;;;;;28.21;22.41;99888.31;5096234;28;839;-38
2021/03/18 02:11:52;;;;;;;;;;;;;;;28.25;22.11;99894.13;5096070;28;886;-33
2021/03/18 02:14:18;;;;;;;;;;;;;;;27.98;22.04;99894.16;5096196;28;736;-43
2021/03/18 02:16:43;;;;;;;;;;;;;;;28.00;22.76;99902.91;5095303;28;993;-34
2021/03/18 02:19:18;;;;;;;;;;;;;;;28.14;22.45;99902.88;5099479;28;855;-42
2021/03/18 02:21:49;;;;;;;;;;;;;;;28.19;22.40;99914.75;5099885;28;1902;-43
2021/03/18 02:24:47;;;;;;;;;;;;;;;28.25;21.91;99913.06;5081659;28;808;-35
2021/03/18 02:27:12;;;;;;;;;;;;;;;27.86;23.00;99902.09;5065524;28;1290;-41
2021/03/18 02:29:41;;;;;;;;;;;;;;;28.24;22.35;99914.13;5099503;28;827;-42
2021/03/18 02:32:09;;;;;;;;;;;;;;;28.29;22.16;99919.72;5098408;28;1083;-39
2021/03/18 02:35:04;;;;;;;;;;;;;;;28.37;22.25;99915.97;5100005;28;780;-41
2021/03/18 02:37:29;;;;;;;;;;;;;;;28.10;22.63;99924.09;5081371;28;811;-37
2021/03/18 02:40:05;;;;;;;;;;;;;;;28.15;22.71;99927.00;5099365;28;725;-33
2021/03/18 02:42:32;;;;;;;;;;;;;;;28.34;22.53;99929.94;5099508;28;1947;-35
2021/03/18 02:44:57;;;;;;;;;;;;;;;28.35;22.73;99928.88;5081138;28;768;-33
2021/03/18 02:47:23;;;;;;;;;;;;;;;28.29;22.02;99922.44;5098331;28;1005;-30
2021/03/18 02:49:49;;;;;;;;;;;;;;;28.14;22.58;99925.38;5081354;28;740;-34
2021/03/18 02:52:15;;;;;;;;;;;;;;;27.99;22.96;99918.28;5080997;28;727;-32
2021/03/18 02:54:41;;;;;;;;;;;;;;;28.26;23.02;99914.72;5099226;28;822;-32
2021/03/18 02:57:07;;;;;;;;;;;;;;;28.34;22.61;99919.94;5081321;28;759;-41
2021/03/18 02:59:34;;;;;;;;;;;;;;;28.43;22.31;99925.94;5080774;28;799;-35
2021/03/18 03:02:00;;;;;;;;;;;;;;;28.04;23.04;99925.78;5075798;28;1959;-31
2021/03/18 03:04:25;;;;;;;;;;;;;;;27.95;23.27;99938.69;5079025;28;764;-33
2021/03/18 03:06:51;;;;;;;;;;;;;;;28.32;22.88;99949.03;5060526;28;831;-38
2021/03/18 03:09:17;;;;;;;;;;;;;;;28.31;22.72;99947.38;5060780;28;741;-33
2021/03/18 03:11:42;;;;;;;;;;;;;;;28.41;22.30;99955.06;5078536;28;550;-32
2021/03/18 03:14:08;;;;;;;;;;;;;;;27.98;22.93;99959.03;5078425;28;756;-42
2021/03/18 03:16:33;;;;;;;;;;;;;;;27.65;23.72;99954.41;5078430;28;1003;-31
2021/03/18 03:18:58;;;;;;;;;;;;;;;28.10;23.14;99957.38;5078612;28;823;-41
2021/03/18 03:21:24;;;;;;;;;;;;;;;28.25;22.92;99959.03;5060093;28;1910;-31
2021/03/18 03:23:49;;;;;;;;;;;;;;;28.22;22.85;99970.28;5060380;28;827;-38
2021/03/18 03:26:17;;;;;;;;;;;;;;;28.13;22.82;99976.94;5078635;28;768;-41
2021/03/18 03:28:43;;;;;;;;;;;;;;;27.69;23.21;99977.34;5077714;28;835;-32
2021/03/18 03:31:08;;;;;;;;;;;;;;;28.00;22.98;99978.59;5060555;28;1298;-34
2021/03/18 03:33:34;;;;;;;;;;;;;;;28.23;22.50;99975.47;5078573;28;959;-32
2021/03/18 03:35:59;;;;;;;;;;;;;;;28.28;22.86;99977.53;5077703;28;756;-43
2021/03/18 03:38:25;;;;;;;;;;;;;;;28.14;22.74;99974.03;5078099;28;818;-42
2021/03/18 03:40:51;;;;;;;;;;;;;;;27.87;23.30;99976.72;5078059;28;1918;-40
2021/03/18 03:43:16;;;;;;;;;;;;;;;27.95;23.23;99981.09;5077718;28;832;-41
2021/03/18 03:45:41;;;;;;;;;;;;;;;28.27;22.77;99973.19;5078320;28;724;-36
2021/03/18 03:48:07;;;;;;;;;;;;;;;28.33;23.07;99983.19;5078272;28;1033;-40
2021/03/18 03:50:32;;;;;;;;;;;;;;;28.38;22.60;99981.75;5077596;28;780;-31
2021/03/18 03:53:06;;;;;;;;;;;;;;;27.77;23.13;99977.13;5077726;28;507;-33
2021/03/18 03:55:40;;;;;;;;;;;;;;;27.89;23.41;99980.06;5059619;28;1298;-35
2021/03/18 03:58:06;;;;;;;;;;;;;;;26.35;23.15;99981.91;5059223;28;971;-31
2021/03/18 04:00:32;;;;;;;;;;;;;;;25.67;23.43;99984.81;5060164;28;1905;-31
2021/03/18 04:02:58;;;;;;;;;;;;;;;23.81;22.27;99988.00;5077866;28;999;-32
2021/03/18 04:05:24;;;;;;;;;;;;;;;22.07;23.76;99989.41;5077144;28;903;-29
2021/03/18 04:07:49;;;;;;;;;;;;;;;22.16;22.89;99987.53;5077414;28;835;-28
2021/03/18 04:10:14;;;;;;;;;;;;;;;22.17;23.00;99978.53;5077428;28;851;-29
2021/03/18 04:12:40;;;;;;;;;;;;;;;22.45;22.27;99986.19;5059659;28;749;-29
2021/03/18 04:15:09;;;;;;;;;;;;;;;21.95;22.73;99981.72;5059766;28;796;-28
2021/03/18 04:17:35;;;;;;;;;;;;;;;21.37;23.23;99982.41;5077316;28;994;-28
2021/03/18 04:20:01;;;;;;;;;;;;;;;21.60;23.43;99989.00;5076818;28;832;-28
2021/03/18 04:22:27;;;;;;;;;;;;;;;21.93;22.72;99998.94;5059227;28;1898;-28
2021/03/18 04:24:52;;;;;;;;;;;;;;;21.57;23.26;100003.53;5059140;28;764;-28
2021/03/18 04:27:18;;;;;;;;;;;;;;;21.00;23.52;100000.50;5059375;28;752;-35
2021/03/18 04:29:43;;;;;;;;;;;;;;;21.11;23.48;100003.88;5059067;28;812;-32
2021/03/18 04:32:08;;;;;;;;;;;;;;;21.47;23.13;99995.66;5059103;28;1076;-31
2021/03/18 04:34:34;;;;;;;;;;;;;;;20.70;24.14;100001.81;5058785;28;827;-28
2021/03/18 04:36:59;;;;;;;;;;;;;;;20.35;24.50;100007.94;5076665;28;905;-27
2021/03/18 04:39:24;;;;;;;;;;;;;;;20.54;24.93;100014.91;5058877;28;812;-31
2021/03/18 04:41:50;;;;;;;;;;;;;;;20.54;24.86;100006.06;5058489;28;1913;-34
2021/03/18 04:44:15;;;;;;;;;;;;;;;20.74;24.82;100006.69;5059101;28;741;-32
2021/03/18 04:46:42;;;;;;;;;;;;;;;20.03;25.41;100006.66;5059279;28;983;-29
2021/03/18 04:49:07;;;;;;;;;;;;;;;20.22;25.21;100020.88;5076549;28;896;-31
2021/03/18 04:51:32;;;;;;;;;;;;;;;20.18;25.63;100015.00;5076693;28;835;-28
2021/03/18 04:53:57;;;;;;;;;;;;;;;20.33;24.98;100017.09;5077562;28;767;-29
2021/03/18 04:56:23;;;;;;;;;;;;;;;20.17;25.43;100021.31;5076483;28;744;-36
2021/03/18 04:58:48;;;;;;;;;;;;;;;22.86;23.23;100028.19;5058701;28;956;-29
2021/03/18 05:01:13;;;;;;;;;;;;;;;23.71;22.51;100033.03;5076346;28;1910;-32
2021/03/18 05:03:39;;;;;;;;;;;;;;;24.77;21.79;100038.75;5058505;28;1305;-32
2021/03/18 05:06:04;;;;;;;;;;;;;;;25.26;21.62;100049.97;5076806;28;808;-33
2021/03/18 05:08:29;;;;;;;;;;;;;;;25.53;21.63;100044.94;5058936;28;801;-31
2021/03/18 05:10:55;;;;;;;;;;;;;;;25.82;21.70;100055.84;5058219;28;880;-33
2021/03/18 05:13:20;;;;;;;;;;;;;;;25.95;21.64;100055.13;5076638;28;807;-33
2021/03/18 05:15:45;;;;;;;;;;;;;;;26.20;21.39;100060.13;5076580;28;736;-31
2021/03/18 05:18:12;;;;;;;;;;;;;;;25.16;22.91;100061.88;5072558;28;994;-31
2021/03/18 05:20:37;;;;;;;;;;;;;;;24.41;24.00;100072.53;5078370;28;2039;-34
2021/03/18 05:23:02;;;;;;;;;;;;;;;25.56;22.56;100069.63;5096705;28;767;-30
2021/03/18 05:25:28;;;;;;;;;;;;;;;26.10;22.03;100087.41;5096425;28;872;-34
2021/03/18 05:27:53;;;;;;;;;;;;;;;26.24;22.01;100094.59;5096293;28;886;-29
2021/03/18 05:30:19;;;;;;;;;;;;;;;26.35;21.84;100096.00;5096318;28;1131;-32
2021/03/18 05:32:44;;;;;;;;;;;;;;;26.47;21.63;100093.59;5095419;28;930;-31
2021/03/18 05:35:10;;;;;;;;;;;;;;;25.40;22.86;100097.63;5096583;28;729;-30
2021/03/18 05:37:35;;;;;;;;;;;;;;;24.97;23.68;100111.72;5096283;28;855;-40
2021/03/18 05:40:01;;;;;;;;;;;;;;;25.02;23.72;100103.94;5096225;28;752;-30
2021/03/18 05:42:26;;;;;;;;;;;;;;;25.18;23.39;100104.75;5096455;28;1910;-29
2021/03/18 05:44:52;;;;;;;;;;;;;;;25.13;23.58;100109.84;5078493;28;791;-33
2021/03/18 05:47:17;;;;;;;;;;;;;;;24.94;23.89;100109.41;5095453;28;942;-30
2021/03/18 05:49:43;;;;;;;;;;;;;;;24.48;24.53;100116.50;5077167;28;820;-29
2021/03/18 05:52:08;;;;;;;;;;;;;;;24.66;24.43;100129.63;5097045;28;986;-31
2021/03/18 05:54:34;;;;;;;;;;;;;;;24.75;24.39;100122.31;5100632;28;794;-32
2021/03/18 05:56:59;;;;;;;;;;;;;;;24.60;24.55;100122.28;5100038;28;834;-32
2021/03/18 05:59:24;;;;;;;;;;;;;;;24.68;24.58;100126.75;5082160;28;788;-30
2021/03/18 06:01:49;;;;;;;;;;;;;;;24.22;25.04;100141.91;5099388;28;1901;-34
2021/03/18 06:04:15;;;;;;;;;;;;;;;24.22;25.39;100141.91;5082027;28;776;-31
2021/03/18 06:06:40;;;;;;;;;;;;;;;25.73;23.30;100141.31;5081989;28;863;-32
2021/03/18 06:09:06;;;;;;;;;;;;;;;26.16;22.72;100148.66;5082096;28;1299;-30
2021/03/18 06:11:32;;;;;;;;;;;;;;;26.42;22.42;100149.97;5099927;28;816;-34
2021/03/18 06:13:57;;;;;;;;;;;;;;;26.52;22.24;100155.06;5100214;28;759;-36
2021/03/18 06:16:22;;;;;;;;;;;;;;;26.67;22.16;100160.38;5100195;28;843;-36
2021/03/18 06:18:48;;;;;;;;;;;;;;;26.83;22.05;100155.72;5061203;28;1006;-37
2021/03/18 06:21:13;;;;;;;;;;;;;;;26.96;21.89;100158.50;5061722;28;1902;-36
2021/03/18 06:23:39;;;;;;;;;;;;;;;27.08;21.77;100163.41;5079778;28;879;-37
2021/03/18 06:26:04;;;;;;;;;;;;;;;27.29;21.47;100161.66;5079492;28;821;-37
2021/03/18 06:28:30;;;;;;;;;;;;;;;27.43;21.37;100171.50;5079383;28;765;-38
2021/03/18 06:31:09;;;;;;;;;;;;;;;27.62;21.09;100172.66;5079420;28;1303;-35
2021/03/18 06:33:47;;;;;;;;;;;;;;;27.77;21.00;100174.41;5079269;28;959;-36
2021/03/18 06:36:23;;;;;;;;;;;;;;;27.07;21.60;100167.13;5079062;28;875;-36
2021/03/18 06:39:00;;;;;;;;;;;;;;;26.16;22.79;100170.22;5079434;28;780;-35
2021/03/18 06:41:34;;;;;;;;;;;;;;;26.89;22.14;100171.13;5079068;28;1913;-35
2021/03/18 06:43:59;;;;;;;;;;;;;;;27.53;21.44;100176.53;5079318;28;807;-33
2021/03/18 06:46:25;;;;;;;;;;;;;;;27.73;21.33;100175.84;5061223;28;1093;-37
2021/03/18 06:48:50;;;;;;;;;;;;;;;27.89;20.71;100180.09;5078581;28;994;-32
2021/03/18 06:51:25;;;;;;;;;;;;;;;28.04;20.80;100182.63;5079186;28;770;-35
2021/03/18 06:53:51;;;;;;;;;;;;;;;27.20;21.86;100186.13;5079514;28;829;-34
2021/03/18 06:56:25;;;;;;;;;;;;;;;26.32;22.96;100179.09;5059897;28;744;-32
2021/03/18 06:58:50;;;;;;;;;;;;;;;26.55;22.69;100186.19;5078923;28;736;-34
2021/03/18 07:01:21;;;;;;;;;;;;;;;26.53;22.71;100179.13;5061557;28;2008;-34
2021/03/18 07:03:46;;;;;;;;;;;;;;;26.51;22.86;100177.63;5078208;28;944;-33
2021/03/18 07:06:24;;;;;;;;;;;;;;;26.27;23.01;100190.47;5077936;28;843;-33
2021/03/18 07:08:49;;;;;;;;;;;;;;;26.02;23.59;100188.94;5077898;28;902;-42
2021/03/18 07:11:15;;;;;;;;;;;;;;;26.16;23.50;100198.00;5060169;28;1489;-32
2021/03/18 07:13:44;;;;;;;;;;;;;;;26.27;23.35;100185.91;5078464;28;879;-34
2021/03/18 07:16:10;;;;;;;;;;;;;;;26.38;23.13;100184.59;5078564;28;796;-33
2021/03/18 07:18:36;;;;;;;;;;;;;;;26.16;23.51;100191.78;5078530;28;951;-32
2021/03/18 07:21:03;;;;;;;;;;;;;;;25.97;23.83;100191.38;5078009;28;1963;-32
2021/03/18 07:23:38;;;;;;;;;;;;;;;26.02;23.74;100193.50;5078795;28;791;-31
2021/03/18 07:26:11;;;;;;;;;;;;;;;26.15;23.53;100192.81;5078221;28;800;-32
2021/03/18 07:28:36;;;;;;;;;;;;;;;26.25;23.48;100189.81;5078442;28;783;-33
2021/03/18 07:31:01;;;;;;;;;;;;;;;26.15;23.41;100193.66;5060516;28;1084;-33
2021/03/18 07:33:27;;;;;;;;;;;;;;;26.24;23.30;100193.53;5078523;28;1030;-36
2021/03/18 07:35:52;;;;;;;;;;;;;;;26.31;23.50;100196.31;5078062;28;823;-33
2021/03/18 07:38:17;;;;;;;;;;;;;;;26.57;23.25;100197.63;5060305;28;875;-33
2021/03/18 07:40:42;;;;;;;;;;;;;;;26.70;23.16;100197.75;5077935;28;1961;-32
2021/03/18 07:43:08;;;;;;;;;;;;;;;26.58;23.29;100191.19;5078099;28;792;-42
2021/03/18 07:45:33;;;;;;;;;;;;;;;26.29;23.52;100191.91;5078196;28;771;-33
2021/03/18 07:47:59;;;;;;;;;;;;;;;26.51;23.36;100199.22;5060362;28;998;-32
2021/03/18 07:50:26;;;;;;;;;;;;;;;26.44;23.20;100193.78;5078200;28;812;-45
2021/03/18 07:52:52;;;;;;;;;;;;;;;26.31;23.62;100199.00;5078134;28;804;-33
2021/03/18 07:55:17;;;;;;;;;;;;;;;26.20;23.85;100189.53;5059490;28;880;-30
2021/03/18 07:57:52;;;;;;;;;;;;;;;26.47;23.53;100196.09;5059761;28;838;-34
2021/03/18 08:00:18;;;;;;;;;;;;;;;26.70;23.22;100195.06;5077723;28;807;-34
2021/03/18 08:02:43;;;;;;;;;;;;;;;26.75;23.26;100186.38;5077424;28;1953;-37
2021/03/18 08:05:09;;;;;;;;;;;;;;;26.55;23.27;100197.81;5077455;28;756;-33
2021/03/18 08:07:42;;;;;;;;;;;;;;;26.57;23.09;100192.22;5077799;28;816;-34
2021/03/18 08:10:11;;;;;;;;;;;;;;;26.56;23.26;100202.16;5077448;28;736;-40
2021/03/18 08:12:41;;;;;;;;;;;;;;;26.68;23.29;100202.50;5077681;28;768;-35
2021/03/18 08:15:27;;;;;;;;;;;;;;;26.56;23.51;100198.66;5076855;28;803;-36
2021/03/18 08:17:52;;;;;;;;;;;;;;;26.20;23.78;100211.94;5076432;28;1718;-31
2021/03/18 08:20:36;;;;;;;;;;;;;;;26.65;23.23;100205.59;5077675;28;815;-31
2021/03/18 08:23:21;;;;;;;;;;;;;;;26.73;23.11;100208.16;5077344;28;859;-31
2021/03/18 08:25:47;;;;;;;;;;;;;;;26.84;23.21;100211.38;5076794;28;1392;-30
2021/03/18 08:28:31;;;;;;;;;;;;;;;26.69;23.13;100209.59;5077224;28;851;-38
2021/03/18 08:30:56;;;;;;;;;;;;;;;26.59;23.28;100206.38;5075968;28;1101;-35
2021/03/18 08:33:41;;;;;;;;;;;;;;;26.67;23.43;100202.69;5077361;28;1005;-33
2021/03/18 08:36:25;;;;;;;;;;;;;;;26.81;23.01;100209.88;5066369;28;1616;-29
2021/03/18 08:38:58;;;;;;;;;;;;;;;26.67;23.23;100202.69;5076558;28;809;-30
2021/03/18 08:41:27;;;;;;;;;;;;;;;26.65;23.31;100203.72;5076998;28;1972;-35
2021/03/18 08:44:11;;;;;;;;;;;;;;;26.55;23.43;100203.22;5077027;28;805;-39
2021/03/18 08:46:37;;;;;;;;;;;;;;;26.66;23.23;100209.94;5077287;28;966;-27
2021/03/18 08:49:21;;;;;;;;;;;;;;;26.54;23.38;100217.75;5096812;28;756;-29
2021/03/18 08:51:48;;;;;;;;;;;;;;;26.72;23.18;100219.97;5096908;28;798;-33
2021/03/18 08:54:32;;;;;;;;;;;;;;;26.81;22.90;100209.88;5096697;28;817;-30
2021/03/18 08:56:57;;;;;;;;;;;;;;;26.67;22.95;100221.56;5097482;28;708;-42
2021/03/18 08:59:23;;;;;;;;;;;;;;;26.86;22.77;100225.50;5096761;28;894;-30
2021/03/18 09:01:48;;;;;;;;;;;;;;;27.51;22.14;100228.06;5095119;28;1902;-37
2021/03/18 09:04:13;;;;;;;;;;;;;;;28.32;21.40;100233.03;5096648;28;919;-34
2021/03/18 09:06:39;;;;;;;;;;;;;;;28.79;20.49;100228.78;5096541;28;752;-31
2021/03/18 09:09:06;;;;;;;;;;;;;;;29.08;20.20;100229.41;5077982;28;1337;-41
2021/03/18 09:11:31;;;;;;;;;;;;;;;29.17;20.16;100238.16;5096156;28;843;-39
2021/03/18 09:13:56;;;;;;;;;;;;;;;28.72;20.78;100215.22;5078308;28;814;-32
2021/03/18 09:16:22;;;;;;;;;;;;;;;27.75;21.52;100223.25;5092949;28;872;-30
2021/03/18 09:18:47;;;;;;;;;;;;;;;27.90;21.65;100229.53;5076332;28;1002;-42
2021/03/18 09:21:13;;;;;;;;;;;;;;;29.41;19.72;100227.72;5075610;28;1902;-34
2021/03/18 09:23:39;;;;;;;;;;;;;;;30.00;19.21;100241.34;5075685;28;804;-31
2021/03/18 09:26:05;;;;;;;;;;;;;;;29.91;19.44;100239.91;5076563;28;739;-31
2021/03/18 09:28:31;;;;;;;;;;;;;;;29.73;19.43;100244.13;5075841;28;747;-31
2021/03/18 09:30:56;;;;;;;;;;;;;;;29.71;19.56;100243.53;5076080;28;1385;-29
2021/03/18 09:33:28;;;;;;;;;;;;;;;29.62;19.63;100239.38;5075732;28;1026;-41
2021/03/18 09:35:54;;;;;;;;;;;;;;;29.62;19.59;100239.38;5076157;28;837;-37
2021/03/18 09:38:20;;;;;;;;;;;;;;;29.31;20.04;100245.22;5076007;28;787;-31
2021/03/18 09:40:46;;;;;;;;;;;;;;;29.49;19.94;100245.63;5076161;28;1905;-34
2021/03/18 09:43:11;;;;;;;;;;;;;;;29.87;19.22;100249.50;5075959;28;745;-41
2021/03/18 09:45:36;;;;;;;;;;;;;;;29.31;19.97;100249.84;5057682;28;1148;-33
2021/03/18 09:48:02;;;;;;;;;;;;;;;29.06;20.23;100259.41;5075438;28;1014;-29
2021/03/18 09:50:27;;;;;;;;;;;;;;;29.07;20.42;100255.69;5082285;28;868;-41
2021/03/18 09:53:13;;;;;;;;;;;;;;;29.34;19.98;100266.47;5077235;28;1392;-37
2021/03/18 09:55:39;;;;;;;;;;;;;;;29.98;19.42;100262.41;5077341;28;1571;-34
2021/03/18 09:58:11;;;;;;;;;;;;;;;28.79;20.19;100261.25;5075490;28;816;-31
2021/03/18 10:00:36;;;;;;;;;;;;;;;28.89;20.40;100258.97;5068346;28;1910;-37
2021/03/18 10:03:02;;;;;;;;;;;;;;;29.70;19.60;100256.25;5082029;28;943;-42
2021/03/18 10:05:27;;;;;;;;;;;;;;;29.64;19.43;100262.53;5091289;28;863;-38
2021/03/18 10:07:56;;;;;;;;;;;;;;;29.25;19.97;100258.78;5094151;28;812;-37
2021/03/18 10:10:21;;;;;;;;;;;;;;;29.26;20.20;100255.06;5095167;28;871;-41
2021/03/18 10:12:47;;;;;;;;;;;;;;;29.43;19.95;100263.56;5095270;28;816;-37
2021/03/18 10:15:14;;;;;;;;;;;;;;;29.92;19.49;100268.69;5076583;28;872;-33
2021/03/18 10:17:41;;;;;;;;;;;;;;;29.15;20.29;100270.88;5084476;28;887;-31
2021/03/18 10:20:08;;;;;;;;;;;;;;;28.98;20.25;100273.16;5075256;28;848;-32
2021/03/18 10:22:36;;;;;;;;;;;;;;;29.38;19.92;100276.94;5075061;28;1906;-32
2021/03/18 10:25:24;;;;;;;;;;;;;;;29.83;19.31;100284.34;5083213;28;816;-34
2021/03/18 10:27:58;;;;;;;;;;;;;;;28.95;20.38;100287.09;5074916;28;850;-30
2021/03/18 10:30:23;;;;;;;;;;;;;;;28.91;20.27;100283.16;5074720;28;1119;-33
2021/03/18 10:33:24;;;;;;;;;;;;;;;29.49;19.77;100280.84;5082324;28;832;-30
2021/03/18 10:35:52;;;;;;;;;;;;;;;29.93;19.37;100284.75;5052256;28;1205;-31
2021/03/18 10:38:22;;;;;;;;;;;;;;;29.05;20.26;100289.41;5071188;28;911;-33
2021/03/18 10:40:50;;;;;;;;;;;;;;;28.90;20.28;100286.88;5078227;28;1917;-32
2021/03/18 10:43:29;;;;;;;;;;;;;;;29.47;19.89;100291.91;5078535;28;846;-31
2021/03/18 10:45:55;;;;;;;;;;;;;;;29.87;19.17;100293.75;5089502;28;876;-30
2021/03/18 10:48:24;;;;;;;;;;;;;;;28.95;20.08;100295.22;5082148;28;947;-41
2021/03/18 10:50:49;;;;;;;;;;;;;;;28.83;20.47;100289.56;5097242;28;832;-38
2021/03/18 10:53:15;;;;;;;;;;;;;;;29.50;19.94;100313.16;5098372;28;860;-31
2021/03/18 10:55:47;;;;;;;;;;;;;;;29.88;19.31;100300.00;5089733;28;831;-32
2021/03/18 10:58:17;;;;;;;;;;;;;;;29.04;20.08;100295.88;5098315;28;845;-34
2021/03/18 11:00:42;;;;;;;;;;;;;;;28.85;20.50;100307.28;5097820;28;1973;-31
2021/03/18 11:03:11;;;;;;;;;;;;;;;29.45;19.99;100304.81;5083872;28;1018;-30
2021/03/18 11:05:38;;;;;;;;;;;;;;;29.74;19.21;100305.47;5086674;28;883;-41
2021/03/18 11:08:03;;;;;;;;;;;;;;;29.00;19.87;100300.03;5085042;28;855;-32
2021/03/18 11:10:49;;;;;;;;;;;;;;;28.57;20.64;100302.84;5094514;28;868;-32
2021/03/18 11:13:24;;;;;;;;;;;;;;;29.54;19.81;100302.75;5076685;28;1812;-35
2021/03/18 11:15:53;;;;;;;;;;;;;;;29.86;19.46;100302.94;5077468;28;848;-28
2021/03/18 11:18:25;;;;;;;;;;;;;;;29.00;20.16;100303.59;5093266;28;947;-32
2021/03/18 11:20:50;;;;;;;;;;;;;;;28.81;20.59;100297.09;5097464;28;1914;-29
2021/03/18 11:23:15;;;;;;;;;;;;;;;29.54;19.85;100300.88;5098522;28;839;-41
2021/03/18 11:25:41;;;;;;;;;;;;;;;29.88;19.07;100294.59;5097656;28;816;-33
2021/03/18 11:28:12;;;;;;;;;;;;;;;28.59;20.63;100297.25;5097447;28;852;-30
2021/03/18 11:30:37;;;;;;;;;;;;;;;28.80;20.82;100307.06;5097764;28;1148;-36
2021/03/18 11:33:06;;;;;;;;;;;;;;;29.40;19.93;100297.34;5084155;28;931;-28
2021/03/18 11:35:32;;;;;;;;;;;;;;;29.73;19.50;100303.78;5085787;28;887;-37
2021/03/18 11:37:57;;;;;;;;;;;;;;;29.39;19.92;100300.25;5077282;28;857;-31
2021/03/18 11:40:22;;;;;;;;;;;;;;;28.80;20.72;100304.34;5077083;28;1015;-30
2021/03/18 11:42:48;;;;;;;;;;;;;;;29.27;20.26;100295.47;5077322;28;1906;-30
2021/03/18 11:45:13;;;;;;;;;;;;;;;29.72;19.55;100309.41;5078984;28;1425;-29
2021/03/18 11:47:38;;;;;;;;;;;;;;;29.04;20.32;100310.25;5086750;28;863;-34
2021/03/18 11:50:04;;;;;;;;;;;;;;;29.00;20.29;100302.75;5076192;28;938;-40
2021/03/18 11:52:32;;;;;;;;;;;;;;;29.20;20.52;100308.16;5093692;28;863;-29
2021/03/18 11:54:57;;;;;;;;;;;;;;;29.59;19.92;100311.09;5085163;28;872;-33
2021/03/18 11:57:22;;;;;;;;;;;;;;;29.88;19.45;100303.53;5084186;28;828;-35
2021/03/18 11:59:47;;;;;;;;;;;;;;;28.95;20.50;100308.75;5079804;28;871;-32
2021/03/18 12:02:13;;;;;;;;;;;;;;;28.75;20.91;100306.00;5089372;28;2018;-41
2021/03/18 12:04:38;;;;;;;;;;;;;;;29.40;20.13;100294.63;5080473;28;832;-37
2021/03/18 12:07:03;;;;;;;;;;;;;;;29.50;20.28;100301.47;5096866;28;816;-39
2021/03/18 12:09:28;;;;;;;;;;;;;;;28.53;21.16;100300.78;5089349;28;808;-40
2021/03/18 12:11:54;;;;;;;;;;;;;;;28.22;21.72;100309.16;5087851;28;887;-41
2021/03/18 12:14:19;;;;;;;;;;;;;;;28.99;20.63;100310.06;5096760;28;817;-35
2021/03/18 12:16:44;;;;;;;;;;;;;;;29.32;20.60;100313.81;5079823;28;821;-30
2021/03/18 12:19:10;;;;;;;;;;;;;;;29.68;19.85;100314.41;5096977;28;824;-34
2021/03/18 12:21:35;;;;;;;;;;;;;;;29.92;19.52;100318.34;5095677;28;1897;-41
2021/03/18 12:24:00;;;;;;;;;;;;;;;29.26;20.56;100310.03;5076797;28;815;-33
2021/03/18 12:26:26;;;;;;;;;;;;;;;29.17;20.53;100308.59;5092556;28;856;-41
2021/03/18 12:28:51;;;;;;;;;;;;;;;28.87;20.94;100311.66;5096213;28;848;-31
2021/03/18 12:31:16;;;;;;;;;;;;;;;29.25;20.48;100318.38;5088296;28;1190;-29
2021/03/18 12:33:42;;;;;;;;;;;;;;;29.27;20.37;100311.72;5095937;28;947;-35
2021/03/18 12:36:07;;;;;;;;;;;;;;;29.17;20.64;100312.13;5096246;28;864;-35
2021/03/18 12:38:32;;;;;;;;;;;;;;;29.22;20.35;100316.94;5079618;28;832;-34
2021/03/18 12:40:58;;;;;;;;;;;;;;;29.19;20.59;100315.47;5077571;28;1977;-39
2021/03/18 12:43:23;;;;;;;;;;;;;;;29.30;20.49;100311.31;5096070;28;860;-39
2021/03/18 12:45:48;;;;;;;;;;;;;;;29.02;20.59;100311.50;5096309;28;874;-31
2021/03/18 12:48:13;;;;;;;;;;;;;;;29.41;20.42;100314.44;5095510;28;947;-29
2021/03/18 12:50:39;;;;;;;;;;;;;;;30.06;19.33;100318.31;5086546;28;808;-33
2021/03/18 12:53:05;;;;;;;;;;;;;;;28.81;20.64;100319.56;5088762;28;872;-42
2021/03/18 12:55:30;;;;;;;;;;;;;;;28.48;21.17;100320.28;5087964;28;821;-33
2021/03/18 12:57:55;;;;;;;;;;;;;;;29.34;20.10;100322.56;5095501;28;894;-37